Barcelona, Spain

12:38 PM CET on March 23, 2017 (GMT +0100)
El Prat | | Change Station

Elev 20 ft 41.28 °N, 2.07 °E | Updated 8 minutes ago

Partly Cloudy
Partly Cloudy
61 °F
Feels Like 61 °F
N
12
Wind Variable Wind from NNW

Today
High -- | Low -- °F
--% Chance of Precip.
Yesterday
High -- | Low -- °F
Precip. -- in
Pressure 29.80 in
Visibility 6.2 miles
Clouds Few 3000 ft
Dew Point 37 °F
Humidity 42%
Rainfall 0.00 in
Snow Depth Not available.
6:49 AM 7:07 PM
Waning Crescent, 24% visible
METAR LEBL 231130Z 34010KT 9999 FEW030 16/03 Q1009 NOSIG
Pressure 29.80 in
Visibility 6.2 miles
Clouds Few 3000 ft
Dew Point 37 °F
Humidity 42%
Rainfall 0.00 in
Snow Depth Not available.
6:49 AM 7:07 PM
Waning Crescent, 24% visible
METAR LEBL 231130Z 34010KT 9999 FEW030 16/03 Q1009 NOSIG

Get Severe Weather Alerts

Thanks for signing up!

Be on the lookout for a verification email in your inbox.

You'll start receiving the daily forecast at 8 AM.

×

10-Day Weather Forecast

×

Almanac

Astronomy

Mar. 23, 2017 Rise Set
Actual Time
Civil Twilight
Nautical Twilight
Astronomical Twilight
Moon
Length of Visible Light
Length of Day
Tomorrow will be .
, % of the Moon is Illuminated

Today's Extremes

Country Highs Country Lows

Community

WunderPhotos

Upload Photos

1,962,540 photos uploaded!

WunderBlog® & News

Nearby

Air Quality

  Air Quality AQ Index Pollutant
Not available.

Snow Depth

Station Depth Elevation

Earthquake Activity

City Distance Mag. Time & Date
Minimum magnitude displayed is 2.5.

Earthquake Activity

City Distance Mag. Time & Date
Minimum magnitude displayed is 2.5.

Coastal Water Temperatures

Place Temperature

Stations

Nearby Weather Stations

Station Location Temp. Windchill Dew Point Humidity Wind Precip. Elev Updated Type